This is the latest recevied weather packets stored in our database for station/object EA5GTE-12. If no packets are shown the sender has not sent any weather packets the latest 10 day(s).
| Time | Temp. | Humidity | Pressure | Rain* | Wind** | Luminosity | Snow |
|---|---|---|---|---|---|---|---|
| 1787762296 | 37.78° C | 18% | 932.9 hPa | - | - | - | - |
| 1787760498 | 37.22° C | 17% | 932.8 hPa | - | - | - | - |
| 1787759598 | 37.78° C | 17% | 933 hPa | - | - | - | - |
| 1787758698 | 35° C | 19% | 933 hPa | - | - | - | - |
| 1787757798 | 37.78° C | 17% | 933.1 hPa | - | - | - | - |
| 1787756898 | 37.22° C | 18% | 933.1 hPa | - | - | - | - |
| 1787755998 | 36.67° C | 18% | 933.2 hPa | - | - | - | - |
| 1787755098 | 37.78° C | 17% | 933.3 hPa | - | - | - | - |
| 1787754198 | 38.33° C | 16% | 933.5 hPa | - | - | - | - |
| 1787753297 | 38.89° C | 16% | 933.6 hPa | - | - | - | - |
| 1787752397 | 39.44° C | 14% | 933.7 hPa | - | - | - | - |
| 1787751497 | 38.33° C | 15% | 933.9 hPa | - | - | - | - |
| 1787750597 | 40° C | 14% | 934.1 hPa | - | - | - | - |
| 1787749697 | 36.11° C | 18% | 934.3 hPa | - | - | - | - |
| 1787748797 | 35.56° C | 18% | 934.5 hPa | - | - | - | - |
| 1787747897 | 36.11° C | 18% | 934.6 hPa | - | - | - | - |
| 1787746997 | 35° C | 19% | 934.8 hPa | - | - | - | - |
| 1787746467 | 38.33° C | 16% | 935 hPa | - | - | - | - |
| 1787746097 | 38.33° C | 16% | 935 hPa | - | - | - | - |
| 1787745197 | 35° C | 19% | 935.3 hPa | - | - | - | - |
| 1787744297 | 35.56° C | 19% | 935.2 hPa | - | - | - | - |
| 1787743397 | 34.44° C | 20% | 935.5 hPa | - | - | - | - |
| 1787742496 | 36.11° C | 19% | 935.8 hPa | - | - | - | - |
| 1787741596 | 35° C | 21% | 935.9 hPa | - | - | - | - |
| 1787740696 | 35.56° C | 21% | 936 hPa | - | - | - | - |
* Rain since midnight (hover to see other rain measurements)
** Current wind speed in m/s (hover to see current wind gust speed)